createdAt,value
2023-05-04T00:05:10.757Z,11.10
2023-05-04T00:11:13.316Z,11.10
2023-05-04T00:17:15.762Z,11.10
2023-05-04T00:23:18.181Z,11.10
2023-05-04T00:29:21.524Z,11.20
2023-05-04T00:35:23.937Z,11.20
2023-05-04T00:41:26.550Z,11.20
2023-05-04T00:47:30.366Z,11.20
2023-05-04T00:53:32.958Z,11.10
2023-05-04T00:59:35.398Z,11.20
2023-05-04T01:05:46.741Z,11.20
2023-05-04T01:12:19.637Z,11.00
2023-05-04T01:18:23.752Z,11.00
2023-05-04T01:24:27.242Z,10.90
2023-05-04T01:30:34.646Z,10.90
2023-05-04T01:36:37.242Z,10.80
2023-05-04T01:42:39.976Z,10.70
2023-05-04T01:48:42.071Z,10.50
2023-05-04T01:54:44.275Z,10.50
2023-05-04T02:00:46.948Z,10.40
2023-05-04T02:06:49.243Z,10.40
2023-05-04T02:12:53.078Z,10.50
2023-05-04T02:18:55.616Z,10.50
2023-05-04T02:24:58.159Z,10.50
2023-05-04T02:31:00.592Z,10.60
2023-05-04T02:37:04.675Z,10.50
2023-05-04T02:43:10.664Z,10.50
2023-05-04T02:49:13.089Z,10.50
2023-05-04T02:55:15.606Z,10.60
2023-05-04T03:01:18.677Z,10.70
2023-05-04T03:07:21.428Z,10.70
2023-05-04T03:13:23.683Z,10.80
2023-05-04T03:19:26.560Z,10.80
2023-05-04T03:25:29.137Z,10.90
2023-05-04T03:31:31.866Z,10.90
2023-05-04T03:37:34.831Z,11.00
2023-05-04T03:43:37.393Z,11.00
2023-05-04T03:49:40.448Z,11.10
2023-05-04T03:55:42.807Z,11.20
2023-05-04T04:01:45.541Z,11.20
2023-05-04T04:07:48.141Z,11.20
2023-05-04T04:13:51.107Z,11.20
2023-05-04T04:19:53.582Z,11.20
2023-05-04T04:25:56.157Z,11.30
2023-05-04T04:31:58.444Z,11.30
2023-05-04T04:38:03.410Z,11.30
2023-05-04T04:44:06.111Z,11.30
2023-05-04T04:50:08.982Z,11.30
2023-05-04T04:56:11.435Z,11.20
2023-05-04T05:02:14.082Z,11.20
2023-05-04T05:08:17.104Z,11.20
2023-05-04T05:14:19.580Z,11.20
2023-05-04T05:20:22.058Z,11.30
2023-05-04T05:26:25.325Z,11.40
2023-05-04T05:32:27.698Z,11.40
2023-05-04T05:38:29.955Z,11.50
2023-05-04T05:44:32.550Z,11.50
2023-05-04T05:50:35.087Z,11.60
2023-05-04T05:56:37.693Z,11.70
2023-05-04T06:02:40.224Z,11.70
2023-05-04T06:08:42.636Z,11.70
2023-05-04T06:14:44.957Z,11.80
2023-05-04T06:20:47.978Z,11.90
2023-05-04T06:26:50.187Z,11.80
2023-05-04T06:32:52.617Z,11.80
2023-05-04T06:38:56.138Z,11.90
2023-05-04T06:44:58.951Z,12.00
2023-05-04T06:51:02.317Z,12.00
2023-05-04T06:57:05.352Z,12.00
2023-05-04T07:03:08.189Z,12.00
2023-05-04T07:09:10.569Z,12.00
2023-05-04T07:15:13.217Z,12.10
2023-05-04T07:21:27.762Z,12.20
2023-05-04T07:27:31.124Z,12.20
2023-05-04T07:33:33.591Z,12.20
2023-05-04T07:39:36.989Z,12.30
2023-05-04T07:45:39.257Z,12.20
2023-05-04T07:51:44.770Z,12.20
2023-05-04T07:57:47.495Z,12.10
2023-05-04T08:03:50.099Z,12.30
2023-05-04T08:09:54.366Z,12.50
2023-05-04T08:16:01.465Z,12.60
2023-05-04T08:22:04.333Z,12.70
2023-05-04T08:28:06.924Z,12.50
2023-05-04T08:34:09.343Z,12.30
2023-05-04T08:40:12.976Z,12.20
2023-05-04T08:46:16.690Z,12.20
2023-05-04T08:52:20.464Z,12.20
2023-05-04T08:58:25.099Z,12.30
2023-05-04T09:04:29.771Z,12.20
2023-05-04T09:10:32.342Z,12.20
2023-05-04T09:16:38.219Z,12.30
2023-05-04T09:22:40.746Z,12.30
2023-05-04T09:28:44.036Z,12.50
2023-05-04T09:34:52.413Z,12.80
2023-05-04T09:40:54.768Z,12.50
2023-05-04T09:46:59.106Z,12.50
2023-05-04T09:53:02.786Z,12.70
2023-05-04T09:59:05.855Z,12.70
2023-05-04T10:05:09.776Z,12.60
2023-05-04T10:11:13.113Z,12.50
2023-05-04T10:17:27.171Z,12.40
2023-05-04T10:24:00.360Z,12.50
2023-05-04T10:30:03.085Z,12.70
2023-05-04T10:36:05.372Z,13.20
2023-05-04T10:42:09.101Z,13.60
2023-05-04T10:48:11.463Z,14.10
2023-05-04T10:54:20.158Z,14.70
2023-05-04T11:00:23.589Z,14.90
2023-05-04T11:06:26.710Z,15.30
2023-05-04T11:12:29.321Z,15.20
2023-05-04T11:18:34.659Z,15.40
2023-05-04T11:24:42.906Z,16.20
2023-05-04T11:30:47.025Z,16.60
2023-05-04T11:36:50.032Z,16.50
2023-05-04T11:42:56.128Z,16.40
2023-05-04T11:48:59.972Z,16.80
2023-05-04T11:55:03.907Z,17.10
2023-05-04T12:01:06.585Z,17.30
2023-05-04T12:07:09.051Z,18.00
2023-05-04T12:13:18.036Z,18.60
2023-05-04T12:19:20.369Z,18.90
2023-05-04T12:25:23.375Z,18.70
2023-05-04T12:31:25.910Z,18.30
2023-05-04T12:37:28.206Z,17.80
2023-05-04T12:43:33.995Z,17.50
2023-05-04T12:49:36.577Z,17.90
2023-05-04T12:55:39.321Z,17.70
2023-05-04T13:01:44.729Z,17.80
2023-05-04T13:07:47.451Z,17.80
2023-05-04T13:13:49.750Z,17.80
2023-05-04T13:19:52.147Z,17.90
2023-05-04T13:25:55.246Z,18.10
2023-05-04T13:31:59.788Z,18.60
2023-05-04T13:38:02.318Z,19.20
2023-05-04T13:44:04.728Z,19.00
2023-05-04T13:50:08.266Z,18.90
2023-05-04T13:56:10.756Z,18.30
2023-05-04T14:02:13.238Z,18.10
2023-05-04T14:08:15.661Z,17.90
2023-05-04T14:14:18.039Z,17.70
2023-05-04T14:20:20.565Z,17.70
2023-05-04T14:26:22.937Z,17.60
2023-05-04T14:32:25.469Z,17.30
2023-05-04T14:38:27.983Z,17.30
2023-05-04T14:44:30.618Z,17.20
2023-05-04T14:50:33.375Z,17.20
2023-05-04T14:56:35.719Z,17.20
2023-05-04T15:02:42.274Z,17.20
2023-05-04T15:08:44.764Z,17.30
2023-05-04T15:14:47.272Z,17.10
2023-05-04T15:20:49.734Z,17.00
2023-05-04T15:26:52.047Z,17.00
2023-05-04T15:32:54.734Z,16.80
2023-05-04T15:38:57.388Z,16.90
2023-05-04T15:44:59.728Z,16.80
2023-05-04T15:51:01.972Z,16.80
2023-05-04T15:57:04.624Z,16.80
2023-05-04T16:03:07.109Z,16.60
2023-05-04T16:09:10.655Z,16.50
2023-05-04T16:15:13.106Z,16.50
2023-05-04T16:21:15.854Z,16.40
2023-05-04T16:27:18.718Z,16.40
2023-05-04T16:33:21.209Z,16.20
2023-05-04T16:39:30.985Z,16.10
2023-05-04T16:45:33.440Z,15.90
2023-05-04T16:51:35.782Z,15.80
2023-05-04T16:57:38.427Z,15.80
2023-05-04T17:03:40.852Z,15.80
2023-05-04T17:09:43.317Z,15.80
2023-05-04T17:15:45.559Z,15.80
2023-05-04T17:21:47.859Z,15.90
2023-05-04T17:27:50.055Z,15.80
2023-05-04T17:33:52.459Z,15.80
2023-05-04T17:39:54.873Z,15.80
2023-05-04T17:45:57.384Z,15.80
2023-05-04T17:52:01.752Z,15.70
2023-05-04T17:58:04.304Z,15.70
2023-05-04T18:04:06.677Z,15.70
2023-05-04T18:10:09.356Z,15.70
2023-05-04T18:16:12.264Z,15.70
2023-05-04T18:22:14.790Z,15.70
2023-05-04T18:28:17.759Z,15.70
2023-05-04T18:34:20.052Z,15.60
2023-05-04T18:40:24.243Z,15.50
2023-05-04T18:46:26.637Z,15.50
2023-05-04T18:52:29.100Z,15.50
2023-05-04T18:58:31.532Z,15.40
2023-05-04T19:04:34.424Z,15.40
2023-05-04T19:10:37.118Z,15.40
2023-05-04T19:16:39.570Z,15.30
2023-05-04T19:22:41.914Z,15.10
2023-05-04T19:28:44.474Z,15.00
2023-05-04T19:34:46.729Z,14.90
2023-05-04T19:40:49.097Z,14.80
2023-05-04T19:46:51.939Z,14.70
2023-05-04T19:52:54.253Z,14.70
2023-05-04T19:58:56.304Z,14.80
2023-05-04T20:04:58.649Z,14.80
2023-05-04T20:11:01.046Z,14.80
2023-05-04T20:17:04.604Z,14.70
2023-05-04T20:23:06.796Z,14.70
2023-05-04T20:29:09.227Z,14.70
2023-05-04T20:35:11.673Z,14.70
2023-05-04T20:41:14.131Z,14.60
2023-05-04T20:47:16.855Z,14.60
2023-05-04T20:53:19.206Z,14.50
2023-05-04T20:59:21.505Z,14.30
2023-05-04T21:05:23.817Z,14.20
2023-05-04T21:11:26.229Z,14.20
2023-05-04T21:17:28.825Z,14.20
2023-05-04T21:23:32.823Z,14.10
2023-05-04T21:29:35.302Z,13.90
2023-05-04T21:35:37.921Z,13.90
2023-05-04T21:41:40.407Z,13.90
2023-05-04T21:47:42.863Z,13.80
2023-05-04T21:53:45.730Z,13.70
2023-05-04T21:59:49.837Z,13.60
2023-05-04T22:05:55.756Z,13.60
2023-05-04T22:11:58.009Z,13.60
2023-05-04T22:18:00.590Z,13.60
2023-05-04T22:24:03.025Z,13.60
2023-05-04T22:30:06.401Z,13.60
2023-05-04T22:36:09.548Z,13.60
2023-05-04T22:42:12.254Z,13.50
2023-05-04T22:48:15.460Z,13.40
2023-05-04T22:54:18.103Z,13.30
2023-05-04T23:00:21.361Z,13.20
2023-05-04T23:06:24.151Z,13.10
2023-05-04T23:12:27.873Z,13.10
2023-05-04T23:18:30.375Z,13.00
2023-05-04T23:24:32.710Z,13.00
2023-05-04T23:30:35.156Z,12.90
2023-05-04T23:36:37.588Z,12.90
2023-05-04T23:42:40.054Z,12.90
2023-05-04T23:48:42.338Z,13.00
2023-05-04T23:54:44.801Z,13.00
